PrinceSS Superior — CZ4348 — position and weather

sailwx.info

Track history (hours):
 
Tides and Currents Weather Stations Pressure Air Temp Water Temp Dewpoint Dewpoint Depression Visibility Wind Speed Wind Dir Waves Ship Positions

PrinceSS Superior

Last reported at 2018-Feb-21 10:41 UTC. Time now 2018-Feb-21 11:31 UTC.
Position N 49°11' W 123°35'.

Length 117 m; draft 4.5 m.

Type: Ship. MMSI: 316003289.

Date/timePositionNaut miles runAvg speedWind from/ knotsBaromVisibWave heightAir tempDewpointWater temp
2018-Feb-21 10:41N 49°11' W 123°35'213.3
2018-Feb-21 10:31N 49°10' W 123°32'713.6
2018-Feb-21 10:00N 49°07' W 123°23'714.4
2018-Feb-21 09:31N 49°07' W 123°12'612.6
2018-Feb-21 09:00N 49°09' W 123°02'0 0.1
2018-Feb-21 08:26N 49°09' W 123°02'0 0.0
2018-Feb-21 08:00N 49°09' W 123°02'0 0.0
2018-Feb-21 07:30N 49°09' W 123°02'0 0.0
2018-Feb-21 07:00N 49°09' W 123°02'510.1
2018-Feb-21 06:30N 49°07' W 123°09'612.1
2018-Feb-21 06:00N 49°06' W 123°18'612.1
2018-Feb-21 05:30N 49°00' W 123°18'714.4
2018-Feb-21 05:00N 48°53' W 123°18'5 9.7
2018-Feb-21 04:31N 48°48' W 123°20'713.5
2018-Feb-21 04:01N 48°42' W 123°24'1 1.6
2018-Feb-21 03:30N 48°41' W 123°24'0 0.0
2018-Feb-21 03:00N 48°41' W 123°24'0 0.0
2018-Feb-21 02:30N 48°41' W 123°24'0 0.8
2018-Feb-21 02:01N 48°42' W 123°24'612.5
2018-Feb-21 01:30N 48°47' W 123°21'510.7
2018-Feb-21 01:00N 48°53' W 123°18'714.3
2018-Feb-21 00:30N 48°60' W 123°19'713.4
2018-Feb-21 00:00N 49°06' W 123°18'715.1
2018-Feb-20 23:30N 49°07' W 123°06'3 6.6
2018-Feb-20 23:00N 49°09' W 123°02'0 0.0
2018-Feb-20 22:30N 49°09' W 123°02'0 0.0
2018-Feb-20 22:00N 49°09' W 123°02'1 1.9
2018-Feb-20 21:30N 49°08' W 123°03'510.0
2018-Feb-20 21:00N 49°07' W 123°11'510.7
2018-Feb-20 20:30N 49°06' W 123°19'714.4
2018-Feb-20 20:00N 49°08' W 123°30'814.8
2018-Feb-20 19:27N 49°11' W 123°41'812.9
2018-Feb-20 18:51N 49°11' W 123°53'0 0.0
2018-Feb-20 11:48N 49°11' W 123°53'1312.2
2018-Feb-20 10:46N 49°11' W 123°34'413.7
2018-Feb-20 10:30N 49°09' W 123°29'713.7
2018-Feb-20 10:00N 49°06' W 123°19'714.4
2018-Feb-20 09:29N 49°06' W 123°08'4 8.8
2018-Feb-20 08:59N 49°09' W 123°02'0 0.0
2018-Feb-20 08:29N 49°09' W 123°02'0 0.0
2018-Feb-20 07:59N 49°09' W 123°02'0 0.0
2018-Feb-20 07:29N 49°09' W 123°02'0 0.1
2018-Feb-20 06:59N 49°09' W 123°02'511.1
2018-Feb-20 06:30N 49°07' W 123°10'611.6
2018-Feb-20 06:00N 49°06' W 123°19'612.5
2018-Feb-20 05:30N 48°60' W 123°16'714.7
2018-Feb-20 05:00N 48°53' W 123°18'5 9.6
2018-Feb-20 04:30N 48°48' W 123°21'713.5
2018-Feb-20 04:00N 48°42' W 123°24'1 1.2
2018-Feb-20 03:30N 48°41' W 123°24'0 0.0
2018-Feb-20 03:00N 48°41' W 123°24'0 0.0
2018-Feb-20 02:27N 48°41' W 123°24'0 0.5
2018-Feb-20 02:00N 48°41' W 123°24'611.4
2018-Feb-20 01:30N 48°47' W 123°21'510.1
2018-Feb-20 01:00N 48°52' W 123°19'612.8
2018-Feb-20 00:30N 48°58' W 123°19'713.3
2018-Feb-20 00:00N 49°04' W 123°19'611.7
2018-Feb-19 23:28N 49°07' W 123°10'611.3
2018-Feb-19 22:58N 49°09' W 123°02'0 0.0
2018-Feb-19 22:28N 49°09' W 123°02'0 0.0
2018-Feb-19 21:58N 49°09' W 123°02'0 0.0
2018-Feb-19 21:25N 49°09' W 123°02'0 0.0
2018-Feb-19 20:58N 49°09' W 123°02'0 0.0
2018-Feb-19 20:28N 49°09' W 123°02'0 0.1
2018-Feb-19 19:58N 49°09' W 123°02'0 0.0
2018-Feb-19 19:28N 49°09' W 123°02'0 0.0
2018-Feb-19 18:58N 49°09' W 123°02'0 0.0
2018-Feb-19 18:28N 49°09' W 123°02'0 0.0
2018-Feb-19 17:58N 49°09' W 123°02'0 0.0
2018-Feb-19 17:28N 49°09' W 123°02'0 0.0
2018-Feb-19 16:58N 49°09' W 123°02'0 0.0
2018-Feb-19 16:28N 49°09' W 123°02'0 0.0
2018-Feb-19 15:58N 49°09' W 123°02'0 0.0
2018-Feb-19 15:28N 49°09' W 123°02'0 0.0
2018-Feb-19 14:58N 49°09' W 123°02'0 0.0
2018-Feb-19 14:28N 49°09' W 123°02'0 0.0
2018-Feb-19 13:58N 49°09' W 123°02'0 0.0
2018-Feb-19 13:28N 49°09' W 123°02'0 0.0
2018-Feb-19 12:58N 49°09' W 123°02'0 0.0
2018-Feb-19 12:28N 49°09' W 123°02'0 0.0
2018-Feb-19 11:58N 49°09' W 123°02'0 0.0
2018-Feb-19 11:28N 49°09' W 123°02'0 0.0
2018-Feb-19 10:58N 49°09' W 123°02'0 0.0
2018-Feb-19 10:28N 49°09' W 123°02'0 0.0
2018-Feb-19 09:58N 49°09' W 123°02'0 0.0
2018-Feb-19 09:28N 49°09' W 123°02'0 0.0
2018-Feb-19 08:58N 49°09' W 123°02'0 0.0
2018-Feb-19 08:25N 49°09' W 123°02'0 0.0
2018-Feb-19 07:58N 49°09' W 123°02'0 0.0
2018-Feb-19 07:28N 49°09' W 123°02'0 0.0
2018-Feb-19 06:58N 49°09' W 123°02'0 0.0
2018-Feb-19 06:28N 49°09' W 123°02'0 0.0
2018-Feb-19 05:58N 49°09' W 123°02'0 0.0
2018-Feb-19 05:28N 49°09' W 123°02'0 0.0
2018-Feb-19 04:58N 49°09' W 123°02'0 0.0
2018-Feb-19 04:25N 49°09' W 123°02'0 0.0
2018-Feb-19 03:58N 49°09' W 123°02'0 0.0
2018-Feb-19 03:28N 49°09' W 123°02'0 0.0
2018-Feb-19 02:58N 49°09' W 123°02'0 0.0
2018-Feb-19 02:28N 49°09' W 123°02'0 0.0
2018-Feb-19 01:58N 49°09' W 123°02'0 0.0
2018-Feb-19 01:28N 49°09' W 123°02'0 0.0
2018-Feb-19 00:58N 49°09' W 123°02'0 0.0
2018-Feb-19 00:28N 49°09' W 123°02'0 0.0
2018-Feb-18 23:58N 49°09' W 123°02'0 0.0
2018-Feb-18 23:28N 49°09' W 123°02'0 0.0
2018-Feb-18 22:58N 49°09' W 123°02'0 0.0
2018-Feb-18 22:28N 49°09' W 123°02'0 0.0
2018-Feb-18 21:58N 49°09' W 123°02'0 0.0
2018-Feb-18 21:28N 49°09' W 123°02'0 0.0
2018-Feb-18 20:58N 49°09' W 123°02'0 0.0
2018-Feb-18 20:28N 49°09' W 123°02'0 0.0
2018-Feb-18 19:58N 49°09' W 123°02'0 0.0
2018-Feb-18 19:28N 49°09' W 123°02'0 0.0
2018-Feb-18 18:58N 49°09' W 123°02'0 0.0
2018-Feb-18 18:28N 49°09' W 123°02'0 0.0
2018-Feb-18 17:58N 49°09' W 123°02'0 0.0
2018-Feb-18 17:28N 49°09' W 123°02'0 0.0
2018-Feb-18 16:58N 49°09' W 123°02'0 0.1
2018-Feb-18 16:28N 49°09' W 123°02'0 0.0
2018-Feb-18 15:58N 49°09' W 123°02'3 5.5
2018-Feb-18 15:29N 49°07' W 123°05'714.1
2018-Feb-18 15:00N 49°07' W 123°16'612.1
2018-Feb-18 14:30N 49°01' W 123°18'711.4
2018-Feb-18 13:53N 48°54' W 123°17'512.0
2018-Feb-18 13:30N 48°51' W 123°21'714.6
2018-Feb-18 13:00N 48°43' W 123°21'3 6.4
2018-Feb-18 12:30N 48°41' W 123°24'0 0.0
2018-Feb-18 12:00N 48°41' W 123°24'0 0.0
2018-Feb-18 11:30N 48°41' W 123°24'0 0.0
2018-Feb-18 11:00N 48°41' W 123°24'3 5.4
2018-Feb-18 10:30N 48°43' W 123°21'612.3
2018-Feb-18 10:00N 48°49' W 123°21'5 8.9
2018-Feb-18 09:26N 48°54' W 123°18'512.0
2018-Feb-18 08:59N 48°59' W 123°21'611.1
2018-Feb-18 08:28N 49°05' W 123°21'714.6
2018-Feb-18 08:00N 49°07' W 123°11'611.9
2018-Feb-18 07:29N 49°09' W 123°02'0 0.0
2018-Feb-18 06:59N 49°09' W 123°02'0 0.4
2018-Feb-18 06:29N 49°09' W 123°02'0 0.3
2018-Feb-18 05:59N 49°09' W 123°02'0 0.0
2018-Feb-18 05:29N 49°09' W 123°02'0 0.0
2018-Feb-18 04:59N 49°09' W 123°02'0 0.0
2018-Feb-18 04:29N 49°09' W 123°02'0 0.0
2018-Feb-18 03:59N 49°09' W 123°02'0 0.0
2018-Feb-18 03:29N 49°09' W 123°02'0 0.0
2018-Feb-18 02:59N 49°09' W 123°02'0 0.0
2018-Feb-18 02:29N 49°09' W 123°02'0 0.0
2018-Feb-18 01:59N 49°09' W 123°02'0 0.0
2018-Feb-18 01:29N 49°09' W 123°02'0 0.1
2018-Feb-18 00:59N 49°09' W 123°02'0 0.1
2018-Feb-18 00:29N 49°09' W 123°02'0 0.0
2018-Feb-17 23:59N 49°09' W 123°02'0 0.0
2018-Feb-17 23:29N 49°09' W 123°02'0 0.0
2018-Feb-17 22:59N 49°09' W 123°02'0 0.1
2018-Feb-17 22:26N 49°09' W 123°02'0 0.0
2018-Feb-17 21:59N 49°09' W 123°02'0 0.8
2018-Feb-17 21:30N 49°09' W 123°03'510.6
2018-Feb-17 21:00N 49°07' W 123°10'611.2
2018-Feb-17 20:30N 49°06' W 123°19'814.6
2018-Feb-17 19:59N 49°08' W 123°30'714.8
2018-Feb-17 19:30N 49°11' W 123°40'8 1.1
2018-Feb-17 11:52N 49°09' W 123°52'4 9.6
2018-Feb-17 11:29N 49°13' W 123°52'913.6
2018-Feb-17 10:49N 49°11' W 123°38'514.9
2018-Feb-17 10:29N 49°09' W 123°31'714.8
2018-Feb-17 10:00N 49°07' W 123°21'713.8
2018-Feb-17 09:30N 49°07' W 123°10'611.4
2018-Feb-17 09:00N 49°09' W 123°02'0 0.0
2018-Feb-17 08:30N 49°09' W 123°02'0 0.0
2018-Feb-17 08:00N 49°09' W 123°02'0 0.0
2018-Feb-17 07:30N 49°09' W 123°02'2 4.2
2018-Feb-17 07:00N 49°07' W 123°05'5 9.7
2018-Feb-17 06:30N 49°07' W 123°12'5 9.3
2018-Feb-17 06:00N 49°06' W 123°19'611.9
2018-Feb-17 05:30N 49°01' W 123°15'713.4
2018-Feb-17 05:00N 48°54' W 123°18'5 9.5
2018-Feb-17 04:30N 48°50' W 123°20'713.3
2018-Feb-17 04:00N 48°43' W 123°24'2 3.8
2018-Feb-17 03:28N 48°41' W 123°24'0 0.0
2018-Feb-17 02:49N 48°41' W 123°24'0 0.0
2018-Feb-17 02:28N 48°41' W 123°24'0 0.1
2018-Feb-17 02:01N 48°41' W 123°24'510.7
2018-Feb-17 01:30N 48°46' W 123°21'712.5
2018-Feb-17 00:59N 48°53' W 123°18'714.9
2018-Feb-17 00:30N 48°60' W 123°18'713.4
2018-Feb-17 00:00N 49°06' W 123°18'913.4
2018-Feb-16 23:21N 49°07' W 123°04'2 5.4
2018-Feb-16 23:00N 49°09' W 123°02'0 0.0
2018-Feb-16 22:30N 49°09' W 123°02'0 0.0
2018-Feb-16 22:00N 49°09' W 123°02'0 0.8
2018-Feb-16 21:30N 49°08' W 123°03'510.7
2018-Feb-16 21:00N 49°07' W 123°11'611.0
2018-Feb-16 20:30N 49°06' W 123°19'714.0
2018-Feb-16 19:58N 49°08' W 123°30'814.7
2018-Feb-16 19:26N 49°11' W 123°41'8 1.0
2018-Feb-16 11:52N 49°09' W 123°52'1210.7
2018-Feb-16 10:46N 49°10' W 123°34'414.8
2018-Feb-16 10:29N 49°09' W 123°28'813.7
2018-Feb-16 09:56N 49°07' W 123°17'613.6
2018-Feb-16 09:30N 49°06' W 123°08'4 8.2
2018-Feb-16 08:58N 49°09' W 123°02'0 0.0
2018-Feb-16 08:28N 49°09' W 123°02'0 0.0
2018-Feb-16 07:58N 49°09' W 123°02'0 0.0
2018-Feb-16 07:28N 49°09' W 123°02'3 5.4
2018-Feb-16 06:59N 49°07' W 123°05'5 9.5
2018-Feb-16 06:30N 49°07' W 123°12'5 9.4
2018-Feb-16 05:57N 49°06' W 123°20'613.5
2018-Feb-16 05:30N 48°60' W 123°19'813.1
2018-Feb-16 04:54N 48°52' W 123°19'4 8.7
2018-Feb-16 04:30N 48°48' W 123°20'713.7
2018-Feb-16 04:00N 48°42' W 123°24'1 1.5
2018-Feb-16 03:28N 48°41' W 123°24'0 0.0
2018-Feb-16 02:58N 48°41' W 123°24'0 0.0
2018-Feb-16 02:28N 48°41' W 123°24'0 0.4
2018-Feb-16 02:00N 48°41' W 123°24'611.3
2018-Feb-16 01:30N 48°47' W 123°21'612.5
2018-Feb-16 00:59N 48°53' W 123°18'714.2
2018-Feb-16 00:30N 48°60' W 123°19'712.8
2018-Feb-15 23:56N 49°07' W 123°17'613.6
2018-Feb-15 23:30N 49°07' W 123°07'4 7.9
2018-Feb-15 22:59N 49°09' W 123°02'0 0.0
2018-Feb-15 22:29N 49°09' W 123°02'0 0.0
2018-Feb-15 21:59N 49°09' W 123°02'0 0.9
2018-Feb-15 21:30N 49°08' W 123°03'611.0
2018-Feb-15 21:00N 49°07' W 123°11'611.4
2018-Feb-15 20:29N 49°06' W 123°20'714.1
2018-Feb-15 19:59N 49°08' W 123°30'814.5
2018-Feb-15 19:25N 49°11' W 123°42'5 0.6
2018-Feb-15 10:43N 49°10' W 123°34'414.9
2018-Feb-15 10:28N 49°08' W 123°28'714.5
2018-Feb-15 10:00N 49°06' W 123°19'712.9
2018-Feb-15 09:29N 49°07' W 123°08'5 8.8
2018-Feb-15 08:58N 49°09' W 123°02'0 0.0
2018-Feb-15 08:28N 49°09' W 123°02'0 0.0
2018-Feb-15 07:58N 49°09' W 123°02'0 0.0
2018-Feb-15 07:28N 49°09' W 123°02'2 5.0
2018-Feb-15 07:00N 49°07' W 123°05'5 9.8
2018-Feb-15 06:30N 49°08' W 123°12'5 9.6
2018-Feb-15 06:00N 49°06' W 123°19'713.4
2018-Feb-15 05:30N 48°59' W 123°19'713.8
2018-Feb-15 05:00N 48°52' W 123°18'5 9.5
2018-Feb-15 04:30N 48°48' W 123°21'713.3
2018-Feb-15 04:00N 48°42' W 123°24'0 0.6
2018-Feb-15 03:29N 48°41' W 123°24'0 0.0
2018-Feb-15 02:59N 48°41' W 123°24'0 0.0
2018-Feb-15 02:29N 48°41' W 123°24'1 2.5
2018-Feb-15 02:00N 48°42' W 123°23'714.3
2018-Feb-15 01:30N 48°49' W 123°21'712.8
2018-Feb-15 01:00N 48°55' W 123°18'715.3
2018-Feb-15 00:30N 49°02' W 123°19'612.5
2018-Feb-15 00:00N 49°08' W 123°14'713.1
2018-Feb-14 23:30N 49°08' W 123°04'1 2.9
2018-Feb-14 23:00N 49°09' W 123°02'0 0.0
2018-Feb-14 22:30N 49°09' W 123°02'0 0.0
2018-Feb-14 22:00N 49°09' W 123°02'1 1.4
2018-Feb-14 21:30N 49°08' W 123°03'611.3
2018-Feb-14 21:00N 49°07' W 123°11'812.6
2018-Feb-14 20:24N 49°06' W 123°23'514.0
2018-Feb-14 20:00N 49°08' W 123°31'4 0.5
2018-Feb-14 10:50N 49°11' W 123°36'515.2
2018-Feb-14 10:30N 49°09' W 123°29'813.8
2018-Feb-14 09:54N 49°07' W 123°16'513.1
2018-Feb-14 09:30N 49°07' W 123°08'5 8.9
2018-Feb-14 09:00N 49°09' W 123°02'0 0.0
2018-Feb-14 08:30N 49°09' W 123°02'0 0.0
2018-Feb-14 08:00N 49°09' W 123°02'0 0.0
2018-Feb-14 07:30N 49°09' W 123°02'3 6.6
2018-Feb-14 07:00N 49°07' W 123°06'510.2
2018-Feb-14 06:30N 49°08' W 123°14'5 9.8
2018-Feb-14 06:00N 49°05' W 123°20'713.9
2018-Feb-14 05:30N 48°58' W 123°17'713.3
2018-Feb-14 05:00N 48°52' W 123°20'5 9.8
2018-Feb-14 04:30N 48°47' W 123°21'610.6
2018-Feb-14 03:57N 48°41' W 123°24'0 0.0
2018-Feb-14 03:30N 48°41' W 123°24'0 0.0
2018-Feb-14 03:00N 48°41' W 123°24'0 0.0
2018-Feb-14 02:30N 48°41' W 123°24'1 2.5
2018-Feb-14 02:00N 48°42' W 123°23'714.0
2018-Feb-14 01:30N 48°49' W 123°21'612.3
2018-Feb-14 01:00N 48°54' W 123°18'713.9
2018-Feb-14 00:30N 49°01' W 123°21'712.0
2018-Feb-13 23:57N 49°07' W 123°16'613.1
2018-Feb-13 23:28N 49°07' W 123°07'4 7.9
2018-Feb-13 23:00N 49°09' W 123°02'0 0.0
2018-Feb-13 22:30N 49°09' W 123°02'0 0.0
2018-Feb-13 22:00N 49°09' W 123°02'0 0.0
2018-Feb-13 21:30N 49°09' W 123°02'0 0.0
2018-Feb-13 21:00N 49°09' W 123°02'0 0.0
2018-Feb-13 20:30N 49°09' W 123°02'0 0.1
2018-Feb-13 19:57N 49°09' W 123°02'0 0.0
2018-Feb-13 19:30N 49°09' W 123°02'0 0.0
2018-Feb-13 19:00N 49°09' W 123°02'0 0.0
2018-Feb-13 18:30N 49°09' W 123°02'0 0.0
2018-Feb-13 18:00N 49°09' W 123°02'0 0.0
2018-Feb-13 17:30N 49°09' W 123°02'0 0.0
2018-Feb-13 17:00N 49°09' W 123°02'0 0.0
2018-Feb-13 16:30N 49°09' W 123°02'0 0.0
2018-Feb-13 16:00N 49°09' W 123°02'0 0.0
2018-Feb-13 15:30N 49°09' W 123°02'0 0.0
2018-Feb-13 15:00N 49°09' W 123°02'0 0.0
2018-Feb-13 14:30N 49°09' W 123°02'0 0.0
2018-Feb-13 14:00N 49°09' W 123°02'0 0.0
2018-Feb-13 13:30N 49°09' W 123°02'0 0.0
2018-Feb-13 13:00N 49°09' W 123°02'0 0.0
2018-Feb-13 12:30N 49°09' W 123°02'0 0.0
2018-Feb-13 12:00N 49°09' W 123°02'0 0.0
2018-Feb-13 11:30N 49°09' W 123°02'0 0.0
2018-Feb-13 11:00N 49°09' W 123°02'0 0.0
2018-Feb-13 10:30N 49°09' W 123°02'0 0.0
2018-Feb-13 10:00N 49°09' W 123°02'0 0.0
2018-Feb-13 09:30N 49°09' W 123°02'0 0.0
2018-Feb-13 09:00N 49°09' W 123°02'0 0.0
2018-Feb-13 08:30N 49°09' W 123°02'0 0.0
2018-Feb-13 07:57N 49°09' W 123°02'0 0.0
2018-Feb-13 07:30N 49°09' W 123°02'0 0.0
2018-Feb-13 07:00N 49°09' W 123°02'0 0.0
2018-Feb-13 06:30N 49°09' W 123°02'0 0.0
2018-Feb-13 06:00N 49°09' W 123°02'0 0.0
2018-Feb-13 05:30N 49°09' W 123°02'0 0.0
2018-Feb-13 05:00N 49°09' W 123°02'0 0.0
2018-Feb-13 04:30N 49°09' W 123°02'0 0.0
2018-Feb-13 04:00N 49°09' W 123°02'0 0.0
2018-Feb-13 03:30N 49°09' W 123°02'0 0.0
2018-Feb-13 03:00N 49°09' W 123°02'0 0.0
2018-Feb-13 02:30N 49°09' W 123°02'0 0.0
2018-Feb-13 02:00N 49°09' W 123°02'0 0.0
2018-Feb-13 01:30N 49°09' W 123°02'0 0.0
2018-Feb-13 01:00N 49°09' W 123°02'0 0.0
2018-Feb-13 00:30N 49°09' W 123°02'0 0.0
2018-Feb-13 00:00N 49°09' W 123°02'0 0.0
2018-Feb-12 23:24N 49°09' W 123°02'0 0.0
2018-Feb-12 23:00N 49°09' W 123°02'0 0.0
2018-Feb-12 22:30N 49°09' W 123°02'0 0.0
2018-Feb-12 22:00N 49°09' W 123°02'0 0.0
2018-Feb-12 21:30N 49°09' W 123°02'0 0.0
2018-Feb-12 21:00N 49°09' W 123°02'0 0.0
2018-Feb-12 20:27N 49°09' W 123°02'0 0.0
2018-Feb-12 20:00N 49°09' W 123°02'0 0.0
2018-Feb-12 19:30N 49°09' W 123°02'0 0.0
2018-Feb-12 19:00N 49°09' W 123°02'0 0.0
2018-Feb-12 18:30N 49°09' W 123°02'0 0.0
2018-Feb-12 18:00N 49°09' W 123°02'0 0.0
2018-Feb-12 17:27N 49°09' W 123°02'0 0.0
2018-Feb-12 17:00N 49°09' W 123°02'0 0.0
2018-Feb-12 16:30N 49°09' W 123°02'0 0.0
2018-Feb-12 16:00N 49°09' W 123°02'0 0.0
2018-Feb-12 15:30N 49°09' W 123°02'0 0.0
2018-Feb-12 15:00N 49°09' W 123°02'0 0.0
2018-Feb-12 14:30N 49°09' W 123°02'0 0.0
2018-Feb-12 14:00N 49°09' W 123°02'0 0.0
2018-Feb-12 13:30N 49°09' W 123°02'0 0.0
2018-Feb-12 13:00N 49°09' W 123°02'0 0.0
2018-Feb-12 12:27N 49°09' W 123°02'0 0.0
2018-Feb-12 12:00N 49°09' W 123°02'0 0.0
2018-Feb-12 11:30N 49°09' W 123°02'0 0.0
2018-Feb-12 10:57N 49°09' W 123°02'0 0.0
2018-Feb-12 10:27N 49°09' W 123°02'0 0.0
2018-Feb-12 10:00N 49°09' W 123°02'0 0.0
2018-Feb-12 09:30N 49°09' W 123°02'0 0.0
2018-Feb-12 09:00N 49°09' W 123°02'0 0.0
2018-Feb-12 08:30N 49°09' W 123°02'0 0.0
2018-Feb-12 08:00N 49°09' W 123°02'0 0.0
2018-Feb-12 07:30N 49°09' W 123°02'0 0.0
2018-Feb-12 07:00N 49°09' W 123°02'0 0.0
2018-Feb-12 06:30N 49°09' W 123°02'0 0.0
2018-Feb-12 06:00N 49°09' W 123°02'0 0.0
2018-Feb-12 05:30N 49°09' W 123°02'0 0.0
2018-Feb-12 05:00N 49°09' W 123°02'0 0.0
2018-Feb-12 04:30N 49°09' W 123°02'0 0.0
2018-Feb-12 04:00N 49°09' W 123°02'0 0.0
2018-Feb-12 03:30N 49°09' W 123°02'0 0.0
2018-Feb-12 03:00N 49°09' W 123°02'0 0.0
2018-Feb-12 02:30N 49°09' W 123°02'0 0.0
2018-Feb-12 02:00N 49°09' W 123°02'0 0.0
2018-Feb-12 01:30N 49°09' W 123°02'0 0.0
2018-Feb-12 00:54N 49°09' W 123°02'0 0.0
2018-Feb-12 00:30N 49°09' W 123°02'0 0.0
2018-Feb-12 00:00N 49°09' W 123°02'0 0.0
2018-Feb-11 23:30N 49°09' W 123°02'0 0.0
2018-Feb-11 23:00N 49°09' W 123°02'0 0.0
2018-Feb-11 22:30N 49°09' W 123°02'0 0.0
2018-Feb-11 22:00N 49°09' W 123°02'0 0.0
2018-Feb-11 21:30N 49°09' W 123°02'0 0.0
2018-Feb-11 21:00N 49°09' W 123°02'0 0.0
2018-Feb-11 20:27N 49°09' W 123°02'0 0.0
2018-Feb-11 20:00N 49°09' W 123°02'0 0.0
2018-Feb-11 19:30N 49°09' W 123°02'0 0.0
2018-Feb-11 19:00N 49°09' W 123°02'0 0.0
2018-Feb-11 18:30N 49°09' W 123°02'0 0.0
2018-Feb-11 18:00N 49°09' W 123°02'0 0.0
2018-Feb-11 17:30N 49°09' W 123°02'0 0.0
2018-Feb-11 17:00N 49°09' W 123°02'0 0.1
2018-Feb-11 16:30N 49°09' W 123°02'0 0.0
2018-Feb-11 16:00N 49°09' W 123°02'0 0.2
2018-Feb-11 15:30N 49°09' W 123°02'5 9.6
2018-Feb-11 15:01N 49°06' W 123°09'612.1
2018-Feb-11 14:29N 49°06' W 123°18'612.5
2018-Feb-11 14:00N 49°00' W 123°17'814.0
2018-Feb-11 13:25N 48°52' W 123°19'4 9.7
2018-Feb-11 13:01N 48°48' W 123°21'713.6
2018-Feb-11 12:30N 48°42' W 123°24'1 1.0
2018-Feb-11 11:59N 48°41' W 123°24'0 0.0
2018-Feb-11 11:29N 48°41' W 123°24'0 0.1
2018-Feb-11 11:00N 48°41' W 123°24'  
Track history (hours):
 
Tides and Currents Weather Stations Pressure Air Temp Water Temp Dewpoint Dewpoint Depression Visibility Wind Speed Wind Dir Waves Ship Positions

PrinceSS Superior

Last reported at 2018-Feb-21 10:41 UTC. Time now 2018-Feb-21 11:31 UTC.
Position N 49°11' W 123°35'.

Length 117 m; draft 4.5 m.

Type: Ship. MMSI: 316003289.

Date/timePositionNaut miles runAvg speedWind from/ knotsBaromVisibWave heightAir tempDewpointWater temp
2018-Feb-21 10:41N 49°11' W 123°35'213.3
2018-Feb-21 10:31N 49°10' W 123°32'713.6
2018-Feb-21 10:00N 49°07' W 123°23'714.4
2018-Feb-21 09:31N 49°07' W 123°12'612.6
2018-Feb-21 09:00N 49°09' W 123°02'0 0.1
2018-Feb-21 08:26N 49°09' W 123°02'0 0.0
2018-Feb-21 08:00N 49°09' W 123°02'0 0.0
2018-Feb-21 07:30N 49°09' W 123°02'0 0.0
2018-Feb-21 07:00N 49°09' W 123°02'510.1
2018-Feb-21 06:30N 49°07' W 123°09'612.1
2018-Feb-21 06:00N 49°06' W 123°18'612.1
2018-Feb-21 05:30N 49°00' W 123°18'714.4
2018-Feb-21 05:00N 48°53' W 123°18'5 9.7
2018-Feb-21 04:31N 48°48' W 123°20'713.5
2018-Feb-21 04:01N 48°42' W 123°24'1 1.6
2018-Feb-21 03:30N 48°41' W 123°24'0 0.0
2018-Feb-21 03:00N 48°41' W 123°24'0 0.0
2018-Feb-21 02:30N 48°41' W 123°24'0 0.8
2018-Feb-21 02:01N 48°42' W 123°24'612.5
2018-Feb-21 01:30N 48°47' W 123°21'510.7
2018-Feb-21 01:00N 48°53' W 123°18'714.3
2018-Feb-21 00:30N 48°60' W 123°19'713.4
2018-Feb-21 00:00N 49°06' W 123°18'715.1
2018-Feb-20 23:30N 49°07' W 123°06'3 6.6
2018-Feb-20 23:00N 49°09' W 123°02'0 0.0
2018-Feb-20 22:30N 49°09' W 123°02'0 0.0
2018-Feb-20 22:00N 49°09' W 123°02'1 1.9
2018-Feb-20 21:30N 49°08' W 123°03'510.0
2018-Feb-20 21:00N 49°07' W 123°11'510.7
2018-Feb-20 20:30N 49°06' W 123°19'714.4
2018-Feb-20 20:00N 49°08' W 123°30'814.8
2018-Feb-20 19:27N 49°11' W 123°41'812.9
2018-Feb-20 18:51N 49°11' W 123°53'0 0.0
2018-Feb-20 11:48N 49°11' W 123°53'1312.2
2018-Feb-20 10:46N 49°11' W 123°34'413.7
2018-Feb-20 10:30N 49°09' W 123°29'713.7
2018-Feb-20 10:00N 49°06' W 123°19'714.4
2018-Feb-20 09:29N 49°06' W 123°08'4 8.8
2018-Feb-20 08:59N 49°09' W 123°02'0 0.0
2018-Feb-20 08:29N 49°09' W 123°02'0 0.0
2018-Feb-20 07:59N 49°09' W 123°02'0 0.0
2018-Feb-20 07:29N 49°09' W 123°02'0 0.1
2018-Feb-20 06:59N 49°09' W 123°02'511.1
2018-Feb-20 06:30N 49°07' W 123°10'611.6
2018-Feb-20 06:00N 49°06' W 123°19'612.5
2018-Feb-20 05:30N 48°60' W 123°16'714.7
2018-Feb-20 05:00N 48°53' W 123°18'5 9.6
2018-Feb-20 04:30N 48°48' W 123°21'713.5
2018-Feb-20 04:00N 48°42' W 123°24'1 1.2
2018-Feb-20 03:30N 48°41' W 123°24'0 0.0
2018-Feb-20 03:00N 48°41' W 123°24'0 0.0
2018-Feb-20 02:27N 48°41' W 123°24'0 0.5
2018-Feb-20 02:00N 48°41' W 123°24'611.4
2018-Feb-20 01:30N 48°47' W 123°21'510.1
2018-Feb-20 01:00N 48°52' W 123°19'612.8
2018-Feb-20 00:30N 48°58' W 123°19'713.3
2018-Feb-20 00:00N 49°04' W 123°19'611.7
2018-Feb-19 23:28N 49°07' W 123°10'611.3
2018-Feb-19 22:58N 49°09' W 123°02'0 0.0
2018-Feb-19 22:28N 49°09' W 123°02'0 0.0
2018-Feb-19 21:58N 49°09' W 123°02'0 0.0
2018-Feb-19 21:25N 49°09' W 123°02'0 0.0
2018-Feb-19 20:58N 49°09' W 123°02'0 0.0
2018-Feb-19 20:28N 49°09' W 123°02'0 0.1
2018-Feb-19 19:58N 49°09' W 123°02'0 0.0
2018-Feb-19 19:28N 49°09' W 123°02'0 0.0
2018-Feb-19 18:58N 49°09' W 123°02'0 0.0
2018-Feb-19 18:28N 49°09' W 123°02'0 0.0
2018-Feb-19 17:58N 49°09' W 123°02'0 0.0
2018-Feb-19 17:28N 49°09' W 123°02'0 0.0
2018-Feb-19 16:58N 49°09' W 123°02'0 0.0
2018-Feb-19 16:28N 49°09' W 123°02'0 0.0
2018-Feb-19 15:58N 49°09' W 123°02'0 0.0
2018-Feb-19 15:28N 49°09' W 123°02'0 0.0
2018-Feb-19 14:58N 49°09' W 123°02'0 0.0
2018-Feb-19 14:28N 49°09' W 123°02'0 0.0
2018-Feb-19 13:58N 49°09' W 123°02'0 0.0
2018-Feb-19 13:28N 49°09' W 123°02'0 0.0
2018-Feb-19 12:58N 49°09' W 123°02'0 0.0
2018-Feb-19 12:28N 49°09' W 123°02'0 0.0
2018-Feb-19 11:58N 49°09' W 123°02'0 0.0
2018-Feb-19 11:28N 49°09' W 123°02'0 0.0
2018-Feb-19 10:58N 49°09' W 123°02'0 0.0
2018-Feb-19 10:28N 49°09' W 123°02'0 0.0
2018-Feb-19 09:58N 49°09' W 123°02'0 0.0
2018-Feb-19 09:28N 49°09' W 123°02'0 0.0
2018-Feb-19 08:58N 49°09' W 123°02'0 0.0
2018-Feb-19 08:25N 49°09' W 123°02'0 0.0
2018-Feb-19 07:58N 49°09' W 123°02'0 0.0
2018-Feb-19 07:28N 49°09' W 123°02'0 0.0
2018-Feb-19 06:58N 49°09' W 123°02'0 0.0
2018-Feb-19 06:28N 49°09' W 123°02'0 0.0
2018-Feb-19 05:58N 49°09' W 123°02'0 0.0
2018-Feb-19 05:28N 49°09' W 123°02'0 0.0
2018-Feb-19 04:58N 49°09' W 123°02'0 0.0
2018-Feb-19 04:25N 49°09' W 123°02'0 0.0
2018-Feb-19 03:58N 49°09' W 123°02'0 0.0
2018-Feb-19 03:28N 49°09' W 123°02'0 0.0
2018-Feb-19 02:58N 49°09' W 123°02'0 0.0
2018-Feb-19 02:28N 49°09' W 123°02'0 0.0
2018-Feb-19 01:58N 49°09' W 123°02'0 0.0
2018-Feb-19 01:28N 49°09' W 123°02'0 0.0
2018-Feb-19 00:58N 49°09' W 123°02'0 0.0
2018-Feb-19 00:28N 49°09' W 123°02'0 0.0
2018-Feb-18 23:58N 49°09' W 123°02'0 0.0
2018-Feb-18 23:28N 49°09' W 123°02'0 0.0
2018-Feb-18 22:58N 49°09' W 123°02'0 0.0
2018-Feb-18 22:28N 49°09' W 123°02'0 0.0
2018-Feb-18 21:58N 49°09' W 123°02'0 0.0
2018-Feb-18 21:28N 49°09' W 123°02'0 0.0
2018-Feb-18 20:58N 49°09' W 123°02'0 0.0
2018-Feb-18 20:28N 49°09' W 123°02'0 0.0
2018-Feb-18 19:58N 49°09' W 123°02'0 0.0
2018-Feb-18 19:28N 49°09' W 123°02'0 0.0
2018-Feb-18 18:58N 49°09' W 123°02'0 0.0
2018-Feb-18 18:28N 49°09' W 123°02'0 0.0
2018-Feb-18 17:58N 49°09' W 123°02'0 0.0
2018-Feb-18 17:28N 49°09' W 123°02'0 0.0
2018-Feb-18 16:58N 49°09' W 123°02'0 0.1
2018-Feb-18 16:28N 49°09' W 123°02'0 0.0
2018-Feb-18 15:58N 49°09' W 123°02'3 5.5
2018-Feb-18 15:29N 49°07' W 123°05'714.1
2018-Feb-18 15:00N 49°07' W 123°16'612.1
2018-Feb-18 14:30N 49°01' W 123°18'711.4
2018-Feb-18 13:53N 48°54' W 123°17'512.0
2018-Feb-18 13:30N 48°51' W 123°21'714.6
2018-Feb-18 13:00N 48°43' W 123°21'3 6.4
2018-Feb-18 12:30N 48°41' W 123°24'0 0.0
2018-Feb-18 12:00N 48°41' W 123°24'0 0.0
2018-Feb-18 11:30N 48°41' W 123°24'0 0.0
2018-Feb-18 11:00N 48°41' W 123°24'3 5.4
2018-Feb-18 10:30N 48°43' W 123°21'612.3
2018-Feb-18 10:00N 48°49' W 123°21'5 8.9
2018-Feb-18 09:26N 48°54' W 123°18'512.0
2018-Feb-18 08:59N 48°59' W 123°21'611.1
2018-Feb-18 08:28N 49°05' W 123°21'714.6
2018-Feb-18 08:00N 49°07' W 123°11'611.9
2018-Feb-18 07:29N 49°09' W 123°02'0 0.0
2018-Feb-18 06:59N 49°09' W 123°02'0 0.4
2018-Feb-18 06:29N 49°09' W 123°02'0 0.3
2018-Feb-18 05:59N 49°09' W 123°02'0 0.0
2018-Feb-18 05:29N 49°09' W 123°02'0 0.0
2018-Feb-18 04:59N 49°09' W 123°02'0 0.0
2018-Feb-18 04:29N 49°09' W 123°02'0 0.0
2018-Feb-18 03:59N 49°09' W 123°02'0 0.0
2018-Feb-18 03:29N 49°09' W 123°02'0 0.0
2018-Feb-18 02:59N 49°09' W 123°02'0 0.0
2018-Feb-18 02:29N 49°09' W 123°02'0 0.0
2018-Feb-18 01:59N 49°09' W 123°02'0 0.0
2018-Feb-18 01:29N 49°09' W 123°02'0 0.1
2018-Feb-18 00:59N 49°09' W 123°02'0 0.1
2018-Feb-18 00:29N 49°09' W 123°02'0 0.0
2018-Feb-17 23:59N 49°09' W 123°02'0 0.0
2018-Feb-17 23:29N 49°09' W 123°02'0 0.0
2018-Feb-17 22:59N 49°09' W 123°02'0 0.1
2018-Feb-17 22:26N 49°09' W 123°02'0 0.0
2018-Feb-17 21:59N 49°09' W 123°02'0 0.8
2018-Feb-17 21:30N 49°09' W 123°03'510.6
2018-Feb-17 21:00N 49°07' W 123°10'611.2
2018-Feb-17 20:30N 49°06' W 123°19'814.6
2018-Feb-17 19:59N 49°08' W 123°30'714.8
2018-Feb-17 19:30N 49°11' W 123°40'8 1.1
2018-Feb-17 11:52N 49°09' W 123°52'4 9.6
2018-Feb-17 11:29N 49°13' W 123°52'913.6
2018-Feb-17 10:49N 49°11' W 123°38'514.9
2018-Feb-17 10:29N 49°09' W 123°31'714.8
2018-Feb-17 10:00N 49°07' W 123°21'713.8
2018-Feb-17 09:30N 49°07' W 123°10'611.4
2018-Feb-17 09:00N 49°09' W 123°02'0 0.0
2018-Feb-17 08:30N 49°09' W 123°02'0 0.0
2018-Feb-17 08:00N 49°09' W 123°02'0 0.0
2018-Feb-17 07:30N 49°09' W 123°02'2 4.2
2018-Feb-17 07:00N 49°07' W 123°05'5 9.7
2018-Feb-17 06:30N 49°07' W 123°12'5 9.3
2018-Feb-17 06:00N 49°06' W 123°19'611.9
2018-Feb-17 05:30N 49°01' W 123°15'713.4
2018-Feb-17 05:00N 48°54' W 123°18'5 9.5
2018-Feb-17 04:30N 48°50' W 123°20'713.3
2018-Feb-17 04:00N 48°43' W 123°24'2 3.8
2018-Feb-17 03:28N 48°41' W 123°24'0 0.0
2018-Feb-17 02:49N 48°41' W 123°24'0 0.0
2018-Feb-17 02:28N 48°41' W 123°24'0 0.1
2018-Feb-17 02:01N 48°41' W 123°24'510.7
2018-Feb-17 01:30N 48°46' W 123°21'712.5
2018-Feb-17 00:59N 48°53' W 123°18'714.9
2018-Feb-17 00:30N 48°60' W 123°18'713.4
2018-Feb-17 00:00N 49°06' W 123°18'913.4
2018-Feb-16 23:21N 49°07' W 123°04'2 5.4
2018-Feb-16 23:00N 49°09' W 123°02'0 0.0
2018-Feb-16 22:30N 49°09' W 123°02'0 0.0
2018-Feb-16 22:00N 49°09' W 123°02'0 0.8
2018-Feb-16 21:30N 49°08' W 123°03'510.7
2018-Feb-16 21:00N 49°07' W 123°11'611.0
2018-Feb-16 20:30N 49°06' W 123°19'714.0
2018-Feb-16 19:58N 49°08' W 123°30'814.7
2018-Feb-16 19:26N 49°11' W 123°41'8 1.0
2018-Feb-16 11:52N 49°09' W 123°52'1210.7
2018-Feb-16 10:46N 49°10' W 123°34'414.8
2018-Feb-16 10:29N 49°09' W 123°28'813.7
2018-Feb-16 09:56N 49°07' W 123°17'613.6
2018-Feb-16 09:30N 49°06' W 123°08'4 8.2
2018-Feb-16 08:58N 49°09' W 123°02'0 0.0
2018-Feb-16 08:28N 49°09' W 123°02'0 0.0
2018-Feb-16 07:58N 49°09' W 123°02'0 0.0
2018-Feb-16 07:28N 49°09' W 123°02'3 5.4
2018-Feb-16 06:59N 49°07' W 123°05'5 9.5
2018-Feb-16 06:30N 49°07' W 123°12'5 9.4
2018-Feb-16 05:57N 49°06' W 123°20'613.5
2018-Feb-16 05:30N 48°60' W 123°19'813.1
2018-Feb-16 04:54N 48°52' W 123°19'4 8.7
2018-Feb-16 04:30N 48°48' W 123°20'713.7
2018-Feb-16 04:00N 48°42' W 123°24'1 1.5
2018-Feb-16 03:28N 48°41' W 123°24'0 0.0
2018-Feb-16 02:58N 48°41' W 123°24'0 0.0
2018-Feb-16 02:28N 48°41' W 123°24'0 0.4
2018-Feb-16 02:00N 48°41' W 123°24'611.3
2018-Feb-16 01:30N 48°47' W 123°21'612.5
2018-Feb-16 00:59N 48°53' W 123°18'714.2
2018-Feb-16 00:30N 48°60' W 123°19'712.8
2018-Feb-15 23:56N 49°07' W 123°17'613.6
2018-Feb-15 23:30N 49°07' W 123°07'4 7.9
2018-Feb-15 22:59N 49°09' W 123°02'0 0.0
2018-Feb-15 22:29N 49°09' W 123°02'0 0.0
2018-Feb-15 21:59N 49°09' W 123°02'0 0.9
2018-Feb-15 21:30N 49°08' W 123°03'611.0
2018-Feb-15 21:00N 49°07' W 123°11'611.4
2018-Feb-15 20:29N 49°06' W 123°20'714.1
2018-Feb-15 19:59N 49°08' W 123°30'814.5
2018-Feb-15 19:25N 49°11' W 123°42'5 0.6
2018-Feb-15 10:43N 49°10' W 123°34'414.9
2018-Feb-15 10:28N 49°08' W 123°28'714.5
2018-Feb-15 10:00N 49°06' W 123°19'712.9
2018-Feb-15 09:29N 49°07' W 123°08'5 8.8
2018-Feb-15 08:58N 49°09' W 123°02'0 0.0
2018-Feb-15 08:28N 49°09' W 123°02'0 0.0
2018-Feb-15 07:58N 49°09' W 123°02'0 0.0
2018-Feb-15 07:28N 49°09' W 123°02'2 5.0
2018-Feb-15 07:00N 49°07' W 123°05'5 9.8
2018-Feb-15 06:30N 49°08' W 123°12'5 9.6
2018-Feb-15 06:00N 49°06' W 123°19'713.4
2018-Feb-15 05:30N 48°59' W 123°19'713.8
2018-Feb-15 05:00N 48°52' W 123°18'5 9.5
2018-Feb-15 04:30N 48°48' W 123°21'713.3
2018-Feb-15 04:00N 48°42' W 123°24'0 0.6
2018-Feb-15 03:29N 48°41' W 123°24'0 0.0
2018-Feb-15 02:59N 48°41' W 123°24'0 0.0
2018-Feb-15 02:29N 48°41' W 123°24'1 2.5
2018-Feb-15 02:00N 48°42' W 123°23'714.3
2018-Feb-15 01:30N 48°49' W 123°21'712.8
2018-Feb-15 01:00N 48°55' W 123°18'715.3
2018-Feb-15 00:30N 49°02' W 123°19'612.5
2018-Feb-15 00:00N 49°08' W 123°14'713.1
2018-Feb-14 23:30N 49°08' W 123°04'1 2.9
2018-Feb-14 23:00N 49°09' W 123°02'0 0.0
2018-Feb-14 22:30N 49°09' W 123°02'0 0.0
2018-Feb-14 22:00N 49°09' W 123°02'1 1.4
2018-Feb-14 21:30N 49°08' W 123°03'611.3
2018-Feb-14 21:00N 49°07' W 123°11'812.6
2018-Feb-14 20:24N 49°06' W 123°23'514.0
2018-Feb-14 20:00N 49°08' W 123°31'4 0.5
2018-Feb-14 10:50N 49°11' W 123°36'515.2
2018-Feb-14 10:30N 49°09' W 123°29'813.8
2018-Feb-14 09:54N 49°07' W 123°16'513.1
2018-Feb-14 09:30N 49°07' W 123°08'5 8.9
2018-Feb-14 09:00N 49°09' W 123°02'0 0.0
2018-Feb-14 08:30N 49°09' W 123°02'0 0.0
2018-Feb-14 08:00N 49°09' W 123°02'0 0.0
2018-Feb-14 07:30N 49°09' W 123°02'3 6.6
2018-Feb-14 07:00N 49°07' W 123°06'510.2
2018-Feb-14 06:30N 49°08' W 123°14'5 9.8
2018-Feb-14 06:00N 49°05' W 123°20'713.9
2018-Feb-14 05:30N 48°58' W 123°17'713.3
2018-Feb-14 05:00N 48°52' W 123°20'5 9.8
2018-Feb-14 04:30N 48°47' W 123°21'610.6
2018-Feb-14 03:57N 48°41' W 123°24'0 0.0
2018-Feb-14 03:30N 48°41' W 123°24'0 0.0
2018-Feb-14 03:00N 48°41' W 123°24'0 0.0
2018-Feb-14 02:30N 48°41' W 123°24'1 2.5
2018-Feb-14 02:00N 48°42' W 123°23'714.0
2018-Feb-14 01:30N 48°49' W 123°21'612.3
2018-Feb-14 01:00N 48°54' W 123°18'713.9
2018-Feb-14 00:30N 49°01' W 123°21'712.0
2018-Feb-13 23:57N 49°07' W 123°16'613.1
2018-Feb-13 23:28N 49°07' W 123°07'4 7.9
2018-Feb-13 23:00N 49°09' W 123°02'0 0.0
2018-Feb-13 22:30N 49°09' W 123°02'0 0.0
2018-Feb-13 22:00N 49°09' W 123°02'0 0.0
2018-Feb-13 21:30N 49°09' W 123°02'0 0.0
2018-Feb-13 21:00N 49°09' W 123°02'0 0.0
2018-Feb-13 20:30N 49°09' W 123°02'0 0.1
2018-Feb-13 19:57N 49°09' W 123°02'0 0.0
2018-Feb-13 19:30N 49°09' W 123°02'0 0.0
2018-Feb-13 19:00N 49°09' W 123°02'0 0.0
2018-Feb-13 18:30N 49°09' W 123°02'0 0.0
2018-Feb-13 18:00N 49°09' W 123°02'0 0.0
2018-Feb-13 17:30N 49°09' W 123°02'0 0.0
2018-Feb-13 17:00N 49°09' W 123°02'0 0.0
2018-Feb-13 16:30N 49°09' W 123°02'0 0.0
2018-Feb-13 16:00N 49°09' W 123°02'0 0.0
2018-Feb-13 15:30N 49°09' W 123°02'0 0.0
2018-Feb-13 15:00N 49°09' W 123°02'0 0.0
2018-Feb-13 14:30N 49°09' W 123°02'0 0.0
2018-Feb-13 14:00N 49°09' W 123°02'0 0.0
2018-Feb-13 13:30N 49°09' W 123°02'0 0.0
2018-Feb-13 13:00N 49°09' W 123°02'0 0.0
2018-Feb-13 12:30N 49°09' W 123°02'0 0.0
2018-Feb-13 12:00N 49°09' W 123°02'0 0.0
2018-Feb-13 11:30N 49°09' W 123°02'0 0.0
2018-Feb-13 11:00N 49°09' W 123°02'0 0.0
2018-Feb-13 10:30N 49°09' W 123°02'0 0.0
2018-Feb-13 10:00N 49°09' W 123°02'0 0.0
2018-Feb-13 09:30N 49°09' W 123°02'0 0.0
2018-Feb-13 09:00N 49°09' W 123°02'0 0.0
2018-Feb-13 08:30N 49°09' W 123°02'0 0.0
2018-Feb-13 07:57N 49°09' W 123°02'0 0.0
2018-Feb-13 07:30N 49°09' W 123°02'0 0.0
2018-Feb-13 07:00N 49°09' W 123°02'0 0.0
2018-Feb-13 06:30N 49°09' W 123°02'0 0.0
2018-Feb-13 06:00N 49°09' W 123°02'0 0.0
2018-Feb-13 05:30N 49°09' W 123°02'0 0.0
2018-Feb-13 05:00N 49°09' W 123°02'0 0.0
2018-Feb-13 04:30N 49°09' W 123°02'0 0.0
2018-Feb-13 04:00N 49°09' W 123°02'0 0.0
2018-Feb-13 03:30N 49°09' W 123°02'0 0.0
2018-Feb-13 03:00N 49°09' W 123°02'0 0.0
2018-Feb-13 02:30N 49°09' W 123°02'0 0.0
2018-Feb-13 02:00N 49°09' W 123°02'0 0.0
2018-Feb-13 01:30N 49°09' W 123°02'0 0.0
2018-Feb-13 01:00N 49°09' W 123°02'0 0.0
2018-Feb-13 00:30N 49°09' W 123°02'0 0.0
2018-Feb-13 00:00N 49°09' W 123°02'0 0.0
2018-Feb-12 23:24N 49°09' W 123°02'0 0.0
2018-Feb-12 23:00N 49°09' W 123°02'0 0.0
2018-Feb-12 22:30N 49°09' W 123°02'0 0.0
2018-Feb-12 22:00N 49°09' W 123°02'0 0.0
2018-Feb-12 21:30N 49°09' W 123°02'0 0.0
2018-Feb-12 21:00N 49°09' W 123°02'0 0.0
2018-Feb-12 20:27N 49°09' W 123°02'0 0.0
2018-Feb-12 20:00N 49°09' W 123°02'0 0.0
2018-Feb-12 19:30N 49°09' W 123°02'0 0.0
2018-Feb-12 19:00N 49°09' W 123°02'0 0.0
2018-Feb-12 18:30N 49°09' W 123°02'0 0.0
2018-Feb-12 18:00N 49°09' W 123°02'0 0.0
2018-Feb-12 17:27N 49°09' W 123°02'0 0.0
2018-Feb-12 17:00N 49°09' W 123°02'0 0.0
2018-Feb-12 16:30N 49°09' W 123°02'0 0.0
2018-Feb-12 16:00N 49°09' W 123°02'0 0.0
2018-Feb-12 15:30N 49°09' W 123°02'0 0.0
2018-Feb-12 15:00N 49°09' W 123°02'0 0.0
2018-Feb-12 14:30N 49°09' W 123°02'0 0.0
2018-Feb-12 14:00N 49°09' W 123°02'0 0.0
2018-Feb-12 13:30N 49°09' W 123°02'0 0.0
2018-Feb-12 13:00N 49°09' W 123°02'0 0.0
2018-Feb-12 12:27N 49°09' W 123°02'0 0.0
2018-Feb-12 12:00N 49°09' W 123°02'0 0.0
2018-Feb-12 11:30N 49°09' W 123°02'0 0.0
2018-Feb-12 10:57N 49°09' W 123°02'0 0.0
2018-Feb-12 10:27N 49°09' W 123°02'0 0.0
2018-Feb-12 10:00N 49°09' W 123°02'0 0.0
2018-Feb-12 09:30N 49°09' W 123°02'0 0.0
2018-Feb-12 09:00N 49°09' W 123°02'0 0.0
2018-Feb-12 08:30N 49°09' W 123°02'0 0.0
2018-Feb-12 08:00N 49°09' W 123°02'0 0.0
2018-Feb-12 07:30N 49°09' W 123°02'0 0.0
2018-Feb-12 07:00N 49°09' W 123°02'0 0.0
2018-Feb-12 06:30N 49°09' W 123°02'0 0.0
2018-Feb-12 06:00N 49°09' W 123°02'0 0.0
2018-Feb-12 05:30N 49°09' W 123°02'0 0.0
2018-Feb-12 05:00N 49°09' W 123°02'0 0.0
2018-Feb-12 04:30N 49°09' W 123°02'0 0.0
2018-Feb-12 04:00N 49°09' W 123°02'0 0.0
2018-Feb-12 03:30N 49°09' W 123°02'0 0.0
2018-Feb-12 03:00N 49°09' W 123°02'0 0.0
2018-Feb-12 02:30N 49°09' W 123°02'0 0.0
2018-Feb-12 02:00N 49°09' W 123°02'0 0.0
2018-Feb-12 01:30N 49°09' W 123°02'0 0.0
2018-Feb-12 00:54N 49°09' W 123°02'0 0.0
2018-Feb-12 00:30N 49°09' W 123°02'0 0.0
2018-Feb-12 00:00N 49°09' W 123°02'0 0.0
2018-Feb-11 23:30N 49°09' W 123°02'0 0.0
2018-Feb-11 23:00N 49°09' W 123°02'0 0.0
2018-Feb-11 22:30N 49°09' W 123°02'0 0.0
2018-Feb-11 22:00N 49°09' W 123°02'0 0.0
2018-Feb-11 21:30N 49°09' W 123°02'0 0.0
2018-Feb-11 21:00N 49°09' W 123°02'0 0.0
2018-Feb-11 20:27N 49°09' W 123°02'0 0.0
2018-Feb-11 20:00N 49°09' W 123°02'0 0.0
2018-Feb-11 19:30N 49°09' W 123°02'0 0.0
2018-Feb-11 19:00N 49°09' W 123°02'0 0.0
2018-Feb-11 18:30N 49°09' W 123°02'0 0.0
2018-Feb-11 18:00N 49°09' W 123°02'0 0.0
2018-Feb-11 17:30N 49°09' W 123°02'0 0.0
2018-Feb-11 17:00N 49°09' W 123°02'0 0.1
2018-Feb-11 16:30N 49°09' W 123°02'0 0.0
2018-Feb-11 16:00N 49°09' W 123°02'0 0.2
2018-Feb-11 15:30N 49°09' W 123°02'5 9.6
2018-Feb-11 15:01N 49°06' W 123°09'612.1
2018-Feb-11 14:29N 49°06' W 123°18'612.5
2018-Feb-11 14:00N 49°00' W 123°17'814.0
2018-Feb-11 13:25N 48°52' W 123°19'4 9.7
2018-Feb-11 13:01N 48°48' W 123°21'713.6
2018-Feb-11 12:30N 48°42' W 123°24'1 1.0
2018-Feb-11 11:59N 48°41' W 123°24'0 0.0
2018-Feb-11 11:29N 48°41' W 123°24'0 0.1
2018-Feb-11 11:00N 48°41' W 123°24'  

Dump ship's entire track history